sensor_id;sensor_type;location;lat;lon;timestamp;P1;durP1;ratioP1;P2;durP2;ratioP2
15354;SDS011;7777;52.254;9.618;2022-07-12T00:02:11;2.70;;;1.20;;
15354;SDS011;7777;52.254;9.618;2022-07-12T00:04:37;3.33;;;0.97;;
15354;SDS011;7777;52.254;9.618;2022-07-12T00:07:03;3.03;;;1.60;;
15354;SDS011;7777;52.254;9.618;2022-07-12T00:09:29;2.20;;;1.33;;
15354;SDS011;7777;52.254;9.618;2022-07-12T00:11:55;3.10;;;1.30;;
15354;SDS011;7777;52.254;9.618;2022-07-12T00:14:23;7.63;;;1.73;;
15354;SDS011;7777;52.254;9.618;2022-07-12T00:16:49;1.60;;;1.47;;
15354;SDS011;7777;52.254;9.618;2022-07-12T00:19:17;3.67;;;1.47;;
15354;SDS011;7777;52.254;9.618;2022-07-12T00:21:43;1.83;;;1.47;;
15354;SDS011;7777;52.254;9.618;2022-07-12T00:24:09;3.67;;;1.50;;
15354;SDS011;7777;52.254;9.618;2022-07-12T00:26:35;3.27;;;1.43;;
15354;SDS011;7777;52.254;9.618;2022-07-12T00:29:01;1.17;;;1.00;;
15354;SDS011;7777;52.254;9.618;2022-07-12T00:31:27;1.60;;;1.30;;
15354;SDS011;7777;52.254;9.618;2022-07-12T00:33:53;6.57;;;1.70;;
15354;SDS011;7777;52.254;9.618;2022-07-12T00:36:18;1.33;;;1.23;;
15354;SDS011;7777;52.254;9.618;2022-07-12T00:38:45;1.53;;;1.23;;
15354;SDS011;7777;52.254;9.618;2022-07-12T00:41:11;3.63;;;1.77;;
15354;SDS011;7777;52.254;9.618;2022-07-12T00:43:36;2.13;;;1.40;;
15354;SDS011;7777;52.254;9.618;2022-07-12T00:46:02;5.10;;;2.07;;
15354;SDS011;7777;52.254;9.618;2022-07-12T00:48:28;2.60;;;1.80;;
15354;SDS011;7777;52.254;9.618;2022-07-12T00:50:57;3.00;;;2.00;;
15354;SDS011;7777;52.254;9.618;2022-07-12T00:53:25;2.40;;;1.80;;
15354;SDS011;7777;52.254;9.618;2022-07-12T00:55:55;1.90;;;1.60;;
15354;SDS011;7777;52.254;9.618;2022-07-12T00:58:22;2.57;;;2.10;;
15354;SDS011;7777;52.254;9.618;2022-07-12T01:00:49;3.00;;;1.93;;
15354;SDS011;7777;52.254;9.618;2022-07-12T01:03:17;2.40;;;1.90;;
15354;SDS011;7777;52.254;9.618;2022-07-12T01:05:44;2.37;;;2.03;;
15354;SDS011;7777;52.254;9.618;2022-07-12T01:08:11;5.53;;;1.97;;
15354;SDS011;7777;52.254;9.618;2022-07-12T01:10:37;1.80;;;1.60;;
15354;SDS011;7777;52.254;9.618;2022-07-12T01:13:05;3.50;;;2.00;;
15354;SDS011;7777;52.254;9.618;2022-07-12T01:15:31;5.57;;;2.60;;
15354;SDS011;7777;52.254;9.618;2022-07-12T01:17:58;3.83;;;2.47;;
15354;SDS011;7777;52.254;9.618;2022-07-12T01:20:25;3.70;;;2.17;;
15354;SDS011;7777;52.254;9.618;2022-07-12T01:22:52;2.60;;;2.10;;
15354;SDS011;7777;52.254;9.618;2022-07-12T01:25:19;3.27;;;2.27;;
15354;SDS011;7777;52.254;9.618;2022-07-12T01:27:45;3.73;;;2.00;;
15354;SDS011;7777;52.254;9.618;2022-07-12T01:30:11;2.37;;;2.17;;
15354;SDS011;7777;52.254;9.618;2022-07-12T01:32:37;3.33;;;2.30;;
15354;SDS011;7777;52.254;9.618;2022-07-12T01:35:04;3.97;;;2.03;;
15354;SDS011;7777;52.254;9.618;2022-07-12T01:37:36;3.77;;;2.40;;
15354;SDS011;7777;52.254;9.618;2022-07-12T01:40:06;5.20;;;2.33;;
15354;SDS011;7777;52.254;9.618;2022-07-12T01:42:37;3.43;;;2.47;;
15354;SDS011;7777;52.254;9.618;2022-07-12T01:45:04;3.20;;;2.37;;
15354;SDS011;7777;52.254;9.618;2022-07-12T01:47:31;2.90;;;2.53;;
15354;SDS011;7777;52.254;9.618;2022-07-12T01:49:58;3.10;;;2.17;;
15354;SDS011;7777;52.254;9.618;2022-07-12T01:52:25;2.80;;;2.20;;
15354;SDS011;7777;52.254;9.618;2022-07-12T01:54:53;3.03;;;2.57;;
15354;SDS011;7777;52.254;9.618;2022-07-12T01:57:19;4.13;;;2.33;;
15354;SDS011;7777;52.254;9.618;2022-07-12T01:59:46;2.60;;;2.10;;
15354;SDS011;7777;52.254;9.618;2022-07-12T02:02:12;1.77;;;1.63;;
15354;SDS011;7777;52.254;9.618;2022-07-12T02:04:38;2.63;;;1.93;;
15354;SDS011;7777;52.254;9.618;2022-07-12T02:07:04;5.60;;;2.20;;
15354;SDS011;7777;52.254;9.618;2022-07-12T02:09:30;2.50;;;2.10;;
15354;SDS011;7777;52.254;9.618;2022-07-12T02:11:56;3.03;;;2.40;;
15354;SDS011;7777;52.254;9.618;2022-07-12T02:14:23;3.13;;;2.10;;
15354;SDS011;7777;52.254;9.618;2022-07-12T02:16:49;3.10;;;2.03;;
15354;SDS011;7777;52.254;9.618;2022-07-12T02:19:15;4.23;;;2.30;;
15354;SDS011;7777;52.254;9.618;2022-07-12T02:21:41;3.37;;;2.20;;
15354;SDS011;7777;52.254;9.618;2022-07-12T02:24:07;8.63;;;2.23;;
15354;SDS011;7777;52.254;9.618;2022-07-12T02:26:34;6.10;;;2.10;;
15354;SDS011;7777;52.254;9.618;2022-07-12T02:29:01;4.50;;;1.97;;
15354;SDS011;7777;52.254;9.618;2022-07-12T02:31:28;4.53;;;2.00;;
15354;SDS011;7777;52.254;9.618;2022-07-12T02:33:54;3.97;;;2.33;;
15354;SDS011;7777;52.254;9.618;2022-07-12T02:36:20;9.50;;;2.03;;
15354;SDS011;7777;52.254;9.618;2022-07-12T02:38:46;8.17;;;2.47;;
15354;SDS011;7777;52.254;9.618;2022-07-12T02:41:13;5.53;;;2.10;;
15354;SDS011;7777;52.254;9.618;2022-07-12T02:43:38;8.07;;;2.17;;
15354;SDS011;7777;52.254;9.618;2022-07-12T02:46:05;6.50;;;2.37;;
15354;SDS011;7777;52.254;9.618;2022-07-12T02:48:33;8.83;;;2.57;;
15354;SDS011;7777;52.254;9.618;2022-07-12T02:51:02;7.43;;;2.50;;
15354;SDS011;7777;52.254;9.618;2022-07-12T02:53:29;5.13;;;2.20;;
15354;SDS011;7777;52.254;9.618;2022-07-12T02:55:56;3.07;;;2.13;;
15354;SDS011;7777;52.254;9.618;2022-07-12T02:58:22;6.10;;;2.53;;
15354;SDS011;7777;52.254;9.618;2022-07-12T03:00:47;5.50;;;2.10;;
15354;SDS011;7777;52.254;9.618;2022-07-12T03:03:13;3.20;;;2.30;;
15354;SDS011;7777;52.254;9.618;2022-07-12T03:05:40;12.63;;;2.97;;
15354;SDS011;7777;52.254;9.618;2022-07-12T03:08:07;4.63;;;2.40;;
15354;SDS011;7777;52.254;9.618;2022-07-12T03:10:34;2.40;;;2.10;;
15354;SDS011;7777;52.254;9.618;2022-07-12T03:13:01;5.33;;;2.33;;
15354;SDS011;7777;52.254;9.618;2022-07-12T03:15:28;3.93;;;2.53;;
15354;SDS011;7777;52.254;9.618;2022-07-12T03:17:54;3.27;;;2.10;;
15354;SDS011;7777;52.254;9.618;2022-07-12T03:20:20;5.90;;;2.23;;
15354;SDS011;7777;52.254;9.618;2022-07-12T03:22:47;2.30;;;2.10;;
15354;SDS011;7777;52.254;9.618;2022-07-12T03:25:18;2.93;;;2.30;;
15354;SDS011;7777;52.254;9.618;2022-07-12T03:27:45;3.70;;;2.17;;
15354;SDS011;7777;52.254;9.618;2022-07-12T03:30:11;4.53;;;2.73;;
15354;SDS011;7777;52.254;9.618;2022-07-12T03:32:38;7.00;;;2.33;;
15354;SDS011;7777;52.254;9.618;2022-07-12T03:35:05;4.27;;;1.87;;
15354;SDS011;7777;52.254;9.618;2022-07-12T03:37:45;4.00;;;2.70;;
15354;SDS011;7777;52.254;9.618;2022-07-12T03:40:11;2.33;;;2.00;;
15354;SDS011;7777;52.254;9.618;2022-07-12T03:42:38;12.60;;;2.53;;
15354;SDS011;7777;52.254;9.618;2022-07-12T03:45:04;3.57;;;2.33;;
15354;SDS011;7777;52.254;9.618;2022-07-12T03:47:31;3.27;;;1.80;;
15354;SDS011;7777;52.254;9.618;2022-07-12T03:50:00;2.63;;;1.77;;
15354;SDS011;7777;52.254;9.618;2022-07-12T03:52:29;4.77;;;2.33;;
15354;SDS011;7777;52.254;9.618;2022-07-12T03:54:56;2.47;;;2.00;;
15354;SDS011;7777;52.254;9.618;2022-07-12T03:57:22;3.30;;;2.50;;
15354;SDS011;7777;52.254;9.618;2022-07-12T03:59:49;3.40;;;2.30;;
15354;SDS011;7777;52.254;9.618;2022-07-12T04:02:15;3.27;;;2.10;;
15354;SDS011;7777;52.254;9.618;2022-07-12T04:04:41;2.73;;;1.90;;
15354;SDS011;7777;52.254;9.618;2022-07-12T04:07:07;2.73;;;1.97;;
15354;SDS011;7777;52.254;9.618;2022-07-12T04:09:32;6.70;;;2.07;;
15354;SDS011;7777;52.254;9.618;2022-07-12T04:11:58;2.37;;;1.80;;
15354;SDS011;7777;52.254;9.618;2022-07-12T04:14:24;2.83;;;1.90;;
15354;SDS011;7777;52.254;9.618;2022-07-12T04:16:50;3.27;;;1.90;;
15354;SDS011;7777;52.254;9.618;2022-07-12T04:19:16;3.53;;;1.60;;
15354;SDS011;7777;52.254;9.618;2022-07-12T04:21:41;3.50;;;2.03;;
15354;SDS011;7777;52.254;9.618;2022-07-12T04:24:07;2.87;;;1.80;;
15354;SDS011;7777;52.254;9.618;2022-07-12T04:26:33;2.93;;;1.67;;
15354;SDS011;7777;52.254;9.618;2022-07-12T04:28:59;3.40;;;1.77;;
15354;SDS011;7777;52.254;9.618;2022-07-12T04:31:24;4.33;;;2.00;;
15354;SDS011;7777;52.254;9.618;2022-07-12T04:33:50;4.50;;;1.77;;
15354;SDS011;7777;52.254;9.618;2022-07-12T04:36:17;4.17;;;2.20;;
15354;SDS011;7777;52.254;9.618;2022-07-12T04:38:42;1.90;;;1.63;;
15354;SDS011;7777;52.254;9.618;2022-07-12T04:41:08;3.80;;;1.60;;
15354;SDS011;7777;52.254;9.618;2022-07-12T04:43:34;4.30;;;1.80;;
15354;SDS011;7777;52.254;9.618;2022-07-12T04:46:06;2.20;;;1.83;;
15354;SDS011;7777;52.254;9.618;2022-07-12T04:48:36;3.00;;;1.93;;
15354;SDS011;7777;52.254;9.618;2022-07-12T04:51:02;3.90;;;2.63;;
15354;SDS011;7777;52.254;9.618;2022-07-12T04:53:29;3.10;;;2.03;;
15354;SDS011;7777;52.254;9.618;2022-07-12T04:55:55;4.27;;;2.20;;
15354;SDS011;7777;52.254;9.618;2022-07-12T04:58:22;3.43;;;1.87;;
15354;SDS011;7777;52.254;9.618;2022-07-12T05:00:49;3.27;;;2.27;;
15354;SDS011;7777;52.254;9.618;2022-07-12T05:03:15;2.43;;;2.10;;
15354;SDS011;7777;52.254;9.618;2022-07-12T05:05:41;2.67;;;2.33;;
15354;SDS011;7777;52.254;9.618;2022-07-12T05:08:07;5.30;;;3.47;;
15354;SDS011;7777;52.254;9.618;2022-07-12T05:10:33;4.20;;;3.80;;
15354;SDS011;7777;52.254;9.618;2022-07-12T05:12:59;4.03;;;2.90;;
15354;SDS011;7777;52.254;9.618;2022-07-12T05:15:25;4.27;;;3.00;;
15354;SDS011;7777;52.254;9.618;2022-07-12T05:17:51;5.20;;;3.33;;
15354;SDS011;7777;52.254;9.618;2022-07-12T05:20:17;4.70;;;3.53;;
15354;SDS011;7777;52.254;9.618;2022-07-12T05:22:44;5.90;;;4.17;;
15354;SDS011;7777;52.254;9.618;2022-07-12T05:25:10;6.17;;;3.83;;
15354;SDS011;7777;52.254;9.618;2022-07-12T05:27:36;9.20;;;4.70;;
15354;SDS011;7777;52.254;9.618;2022-07-12T05:30:05;6.67;;;4.23;;
15354;SDS011;7777;52.254;9.618;2022-07-12T05:32:31;6.03;;;4.30;;
15354;SDS011;7777;52.254;9.618;2022-07-12T05:34:57;6.10;;;4.00;;
15354;SDS011;7777;52.254;9.618;2022-07-12T05:37:23;5.23;;;4.47;;
15354;SDS011;7777;52.254;9.618;2022-07-12T05:39:50;4.63;;;4.13;;
15354;SDS011;7777;52.254;9.618;2022-07-12T05:42:17;4.77;;;3.80;;
15354;SDS011;7777;52.254;9.618;2022-07-12T05:44:43;5.17;;;4.67;;
15354;SDS011;7777;52.254;9.618;2022-07-12T05:47:09;5.57;;;4.40;;
15354;SDS011;7777;52.254;9.618;2022-07-12T05:49:35;6.73;;;4.17;;
15354;SDS011;7777;52.254;9.618;2022-07-12T05:52:01;9.57;;;4.80;;
15354;SDS011;7777;52.254;9.618;2022-07-12T05:55:02;6.43;;;5.13;;
15354;SDS011;7777;52.254;9.618;2022-07-12T05:57:28;7.03;;;5.03;;
15354;SDS011;7777;52.254;9.618;2022-07-12T05:59:54;6.23;;;4.80;;
15354;SDS011;7777;52.254;9.618;2022-07-12T06:02:20;6.00;;;5.23;;
15354;SDS011;7777;52.254;9.618;2022-07-12T06:04:45;6.37;;;4.67;;
15354;SDS011;7777;52.254;9.618;2022-07-12T06:07:11;6.43;;;5.27;;
15354;SDS011;7777;52.254;9.618;2022-07-12T06:09:37;5.37;;;4.30;;
15354;SDS011;7777;52.254;9.618;2022-07-12T06:12:03;6.47;;;5.30;;
15354;SDS011;7777;52.254;9.618;2022-07-12T06:14:29;5.80;;;4.93;;
15354;SDS011;7777;52.254;9.618;2022-07-12T06:16:55;6.07;;;4.87;;
15354;SDS011;7777;52.254;9.618;2022-07-12T06:19:20;5.30;;;4.17;;
15354;SDS011;7777;52.254;9.618;2022-07-12T06:21:48;5.07;;;4.53;;
15354;SDS011;7777;52.254;9.618;2022-07-12T06:24:14;5.07;;;4.20;;
15354;SDS011;7777;52.254;9.618;2022-07-12T06:26:40;5.10;;;4.60;;
15354;SDS011;7777;52.254;9.618;2022-07-12T06:29:06;5.20;;;4.70;;
15354;SDS011;7777;52.254;9.618;2022-07-12T06:31:31;4.77;;;4.27;;
15354;SDS011;7777;52.254;9.618;2022-07-12T06:33:59;5.90;;;5.03;;
15354;SDS011;7777;52.254;9.618;2022-07-12T06:36:25;5.97;;;4.73;;
15354;SDS011;7777;52.254;9.618;2022-07-12T06:38:51;6.53;;;4.83;;
15354;SDS011;7777;52.254;9.618;2022-07-12T06:41:16;6.23;;;5.50;;
15354;SDS011;7777;52.254;9.618;2022-07-12T06:43:42;6.03;;;5.43;;
15354;SDS011;7777;52.254;9.618;2022-07-12T06:46:08;5.93;;;5.23;;
15354;SDS011;7777;52.254;9.618;2022-07-12T06:48:34;6.13;;;5.53;;
15354;SDS011;7777;52.254;9.618;2022-07-12T06:50:59;6.10;;;5.50;;
15354;SDS011;7777;52.254;9.618;2022-07-12T06:53:25;5.57;;;4.97;;
15354;SDS011;7777;52.254;9.618;2022-07-12T06:55:51;5.73;;;5.17;;
15354;SDS011;7777;52.254;9.618;2022-07-12T06:58:17;6.23;;;5.53;;
15354;SDS011;7777;52.254;9.618;2022-07-12T07:00:42;6.10;;;5.50;;
15354;SDS011;7777;52.254;9.618;2022-07-12T07:03:08;5.37;;;4.83;;
15354;SDS011;7777;52.254;9.618;2022-07-12T07:05:35;5.43;;;4.93;;
15354;SDS011;7777;52.254;9.618;2022-07-12T07:08:03;6.37;;;5.50;;
15354;SDS011;7777;52.254;9.618;2022-07-12T07:10:30;5.93;;;5.00;;
15354;SDS011;7777;52.254;9.618;2022-07-12T07:12:55;5.87;;;5.20;;
15354;SDS011;7777;52.254;9.618;2022-07-12T07:15:21;5.67;;;5.10;;
15354;SDS011;7777;52.254;9.618;2022-07-12T07:17:47;5.00;;;4.50;;
15354;SDS011;7777;52.254;9.618;2022-07-12T07:20:13;5.33;;;4.83;;
15354;SDS011;7777;52.254;9.618;2022-07-12T07:22:39;8.40;;;5.33;;
15354;SDS011;7777;52.254;9.618;2022-07-12T07:25:05;5.83;;;5.23;;
15354;SDS011;7777;52.254;9.618;2022-07-12T07:27:31;5.50;;;4.73;;
15354;SDS011;7777;52.254;9.618;2022-07-12T07:29:57;5.70;;;5.00;;
15354;SDS011;7777;52.254;9.618;2022-07-12T07:32:41;5.67;;;5.17;;
15354;SDS011;7777;52.254;9.618;2022-07-12T07:35:08;5.27;;;4.77;;
15354;SDS011;7777;52.254;9.618;2022-07-12T07:37:34;5.70;;;5.13;;
15354;SDS011;7777;52.254;9.618;2022-07-12T07:39:59;6.60;;;5.50;;
15354;SDS011;7777;52.254;9.618;2022-07-12T07:42:25;5.90;;;5.30;;
15354;SDS011;7777;52.254;9.618;2022-07-12T07:44:51;7.47;;;6.53;;
15354;SDS011;7777;52.254;9.618;2022-07-12T07:47:17;6.80;;;6.10;;
15354;SDS011;7777;52.254;9.618;2022-07-12T07:49:42;6.93;;;6.23;;
15354;SDS011;7777;52.254;9.618;2022-07-12T07:52:08;6.33;;;5.73;;
15354;SDS011;7777;52.254;9.618;2022-07-12T07:54:34;6.73;;;6.03;;
15354;SDS011;7777;52.254;9.618;2022-07-12T07:56:59;6.90;;;6.30;;
15354;SDS011;7777;52.254;9.618;2022-07-12T07:59:25;6.27;;;5.67;;
15354;SDS011;7777;52.254;9.618;2022-07-12T08:01:51;6.47;;;5.87;;
15354;SDS011;7777;52.254;9.618;2022-07-12T08:04:18;6.83;;;6.20;;
15354;SDS011;7777;52.254;9.618;2022-07-12T08:06:45;7.03;;;6.33;;
15354;SDS011;7777;52.254;9.618;2022-07-12T08:09:12;6.83;;;6.17;;
15354;SDS011;7777;52.254;9.618;2022-07-12T08:11:39;7.20;;;6.50;;
15354;SDS011;7777;52.254;9.618;2022-07-12T08:14:06;6.90;;;6.13;;
15354;SDS011;7777;52.254;9.618;2022-07-12T08:16:32;6.60;;;5.90;;
15354;SDS011;7777;52.254;9.618;2022-07-12T08:18:59;6.40;;;5.80;;
15354;SDS011;7777;52.254;9.618;2022-07-12T08:21:26;7.87;;;5.80;;
15354;SDS011;7777;52.254;9.618;2022-07-12T08:23:52;7.33;;;6.63;;
15354;SDS011;7777;52.254;9.618;2022-07-12T08:26:18;6.83;;;5.73;;
15354;SDS011;7777;52.254;9.618;2022-07-12T08:28:44;7.83;;;6.20;;
15354;SDS011;7777;52.254;9.618;2022-07-12T08:31:10;6.20;;;5.60;;
15354;SDS011;7777;52.254;9.618;2022-07-12T08:33:38;6.47;;;5.87;;
15354;SDS011;7777;52.254;9.618;2022-07-12T08:36:05;6.53;;;5.90;;
15354;SDS011;7777;52.254;9.618;2022-07-12T08:38:33;6.70;;;5.37;;
15354;SDS011;7777;52.254;9.618;2022-07-12T08:41:05;5.77;;;5.27;;
15354;SDS011;7777;52.254;9.618;2022-07-12T08:43:33;5.40;;;4.90;;
15354;SDS011;7777;52.254;9.618;2022-07-12T08:46:06;6.90;;;6.20;;
15354;SDS011;7777;52.254;9.618;2022-07-12T08:48:35;5.90;;;5.40;;
15354;SDS011;7777;52.254;9.618;2022-07-12T08:51:06;5.50;;;5.00;;
15354;SDS011;7777;52.254;9.618;2022-07-12T08:53:38;5.80;;;5.30;;
15354;SDS011;7777;52.254;9.618;2022-07-12T08:56:04;6.23;;;5.20;;
15354;SDS011;7777;52.254;9.618;2022-07-12T08:58:32;5.73;;;5.23;;
15354;SDS011;7777;52.254;9.618;2022-07-12T09:00:58;8.03;;;5.73;;
15354;SDS011;7777;52.254;9.618;2022-07-12T09:03:25;5.47;;;4.97;;
15354;SDS011;7777;52.254;9.618;2022-07-12T09:05:53;5.57;;;5.07;;
15354;SDS011;7777;52.254;9.618;2022-07-12T09:08:26;5.77;;;5.27;;
15354;SDS011;7777;52.254;9.618;2022-07-12T09:11:00;5.17;;;4.23;;
15354;SDS011;7777;52.254;9.618;2022-07-12T09:16:17;5.40;;;4.90;;
15354;SDS011;7777;52.254;9.618;2022-07-12T09:18:48;5.30;;;4.80;;
15354;SDS011;7777;52.254;9.618;2022-07-12T09:21:25;5.20;;;4.67;;
15354;SDS011;7777;52.254;9.618;2022-07-12T09:23:54;4.97;;;4.57;;
15354;SDS011;7777;52.254;9.618;2022-07-12T09:26:24;5.27;;;4.77;;
15354;SDS011;7777;52.254;9.618;2022-07-12T09:29:05;5.07;;;4.57;;
15354;SDS011;7777;52.254;9.618;2022-07-12T09:31:42;5.20;;;4.43;;
15354;SDS011;7777;52.254;9.618;2022-07-12T09:34:31;4.83;;;4.37;;
15354;SDS011;7777;52.254;9.618;2022-07-12T09:37:15;6.47;;;4.17;;
15354;SDS011;7777;52.254;9.618;2022-07-12T09:39:41;5.10;;;3.83;;
15354;SDS011;7777;52.254;9.618;2022-07-12T09:42:08;5.70;;;4.40;;
15354;SDS011;7777;52.254;9.618;2022-07-12T09:44:38;5.40;;;4.30;;
15354;SDS011;7777;52.254;9.618;2022-07-12T09:47:13;4.87;;;4.33;;
15354;SDS011;7777;52.254;9.618;2022-07-12T09:49:41;4.70;;;4.13;;
15354;SDS011;7777;52.254;9.618;2022-07-12T09:52:26;4.20;;;3.80;;
15354;SDS011;7777;52.254;9.618;2022-07-12T09:54:54;4.33;;;3.93;;
15354;SDS011;7777;52.254;9.618;2022-07-12T09:57:22;4.70;;;4.00;;
15354;SDS011;7777;52.254;9.618;2022-07-12T09:59:55;5.83;;;4.03;;
15354;SDS011;7777;52.254;9.618;2022-07-12T10:02:23;4.77;;;3.40;;
15354;SDS011;7777;52.254;9.618;2022-07-12T10:04:51;6.40;;;3.87;;
15354;SDS011;7777;52.254;9.618;2022-07-12T10:07:18;3.90;;;3.53;;
15354;SDS011;7777;52.254;9.618;2022-07-12T10:09:50;3.80;;;3.40;;
15354;SDS011;7777;52.254;9.618;2022-07-12T10:12:19;3.20;;;2.90;;
15354;SDS011;7777;52.254;9.618;2022-07-12T10:14:46;4.73;;;3.03;;
15354;SDS011;7777;52.254;9.618;2022-07-12T10:17:23;3.17;;;2.87;;
15354;SDS011;7777;52.254;9.618;2022-07-12T10:19:50;3.07;;;2.77;;
15354;SDS011;7777;52.254;9.618;2022-07-12T10:22:47;3.20;;;2.90;;
15354;SDS011;7777;52.254;9.618;2022-07-12T10:25:30;3.03;;;2.73;;
15354;SDS011;7777;52.254;9.618;2022-07-12T10:28:02;6.00;;;5.30;;
15354;SDS011;7777;52.254;9.618;2022-07-12T10:30:29;3.93;;;3.43;;
15354;SDS011;7777;52.254;9.618;2022-07-12T10:32:59;4.20;;;3.53;;
15354;SDS011;7777;52.254;9.618;2022-07-12T10:35:28;3.20;;;2.90;;
15354;SDS011;7777;52.254;9.618;2022-07-12T10:40:37;3.50;;;3.20;;
15354;SDS011;7777;52.254;9.618;2022-07-12T10:45:38;3.40;;;3.10;;
15354;SDS011;7777;52.254;9.618;2022-07-12T10:48:06;3.07;;;2.77;;
15354;SDS011;7777;52.254;9.618;2022-07-12T10:58:52;3.63;;;2.90;;
15354;SDS011;7777;52.254;9.618;2022-07-12T11:06:21;7.30;;;2.97;;
15354;SDS011;7777;52.254;9.618;2022-07-12T11:08:56;4.03;;;2.33;;
15354;SDS011;7777;52.254;9.618;2022-07-12T11:11:30;2.80;;;2.50;;
15354;SDS011;7777;52.254;9.618;2022-07-12T11:13:59;2.73;;;2.53;;
15354;SDS011;7777;52.254;9.618;2022-07-12T11:16:26;2.67;;;2.47;;
15354;SDS011;7777;52.254;9.618;2022-07-12T11:18:54;3.80;;;2.97;;
15354;SDS011;7777;52.254;9.618;2022-07-12T11:21:22;3.57;;;2.77;;
15354;SDS011;7777;52.254;9.618;2022-07-12T11:23:49;2.27;;;2.07;;
15354;SDS011;7777;52.254;9.618;2022-07-12T11:26:16;2.23;;;1.90;;
15354;SDS011;7777;52.254;9.618;2022-07-12T11:28:42;2.13;;;1.93;;
15354;SDS011;7777;52.254;9.618;2022-07-12T11:31:11;3.13;;;1.87;;
15354;SDS011;7777;52.254;9.618;2022-07-12T11:33:40;3.77;;;2.20;;
15354;SDS011;7777;52.254;9.618;2022-07-12T11:36:10;1.87;;;1.77;;
15354;SDS011;7777;52.254;9.618;2022-07-12T11:38:37;1.73;;;1.63;;
15354;SDS011;7777;52.254;9.618;2022-07-12T11:41:06;1.50;;;1.30;;
15354;SDS011;7777;52.254;9.618;2022-07-12T11:43:34;3.53;;;1.73;;
15354;SDS011;7777;52.254;9.618;2022-07-12T11:46:03;1.20;;;1.07;;
15354;SDS011;7777;52.254;9.618;2022-07-12T11:48:30;0.93;;;0.83;;
15354;SDS011;7777;52.254;9.618;2022-07-12T11:51:00;1.70;;;1.10;;
15354;SDS011;7777;52.254;9.618;2022-07-12T11:53:28;2.63;;;0.93;;
15354;SDS011;7777;52.254;9.618;2022-07-12T11:55:56;0.80;;;0.80;;
15354;SDS011;7777;52.254;9.618;2022-07-12T11:58:24;1.77;;;1.00;;
15354;SDS011;7777;52.254;9.618;2022-07-12T12:00:51;1.07;;;0.77;;
15354;SDS011;7777;52.254;9.618;2022-07-12T12:03:19;1.00;;;0.90;;
15354;SDS011;7777;52.254;9.618;2022-07-12T12:05:47;1.23;;;0.80;;
15354;SDS011;7777;52.254;9.618;2022-07-12T12:08:15;2.00;;;0.83;;
15354;SDS011;7777;52.254;9.618;2022-07-12T12:10:43;1.80;;;0.70;;
15354;SDS011;7777;52.254;9.618;2022-07-12T12:13:29;1.13;;;0.90;;
15354;SDS011;7777;52.254;9.618;2022-07-12T12:15:59;0.90;;;0.87;;
15354;SDS011;7777;52.254;9.618;2022-07-12T12:18:40;0.67;;;0.67;;
15354;SDS011;7777;52.254;9.618;2022-07-12T12:21:07;1.07;;;0.77;;
15354;SDS011;7777;52.254;9.618;2022-07-12T12:23:36;1.30;;;1.00;;
15354;SDS011;7777;52.254;9.618;2022-07-12T12:26:20;0.93;;;0.80;;
15354;SDS011;7777;52.254;9.618;2022-07-12T12:28:49;1.17;;;0.90;;
15354;SDS011;7777;52.254;9.618;2022-07-12T12:31:17;3.25;;;1.02;;
15354;SDS011;7777;52.254;9.618;2022-07-12T12:33:49;4.93;;;1.17;;
15354;SDS011;7777;52.254;9.618;2022-07-12T12:36:22;2.73;;;1.00;;
15354;SDS011;7777;52.254;9.618;2022-07-12T12:41:22;1.00;;;0.90;;
15354;SDS011;7777;52.254;9.618;2022-07-12T12:43:56;1.00;;;0.90;;
15354;SDS011;7777;52.254;9.618;2022-07-12T12:49:48;1.40;;;0.90;;
15354;SDS011;7777;52.254;9.618;2022-07-12T12:52:18;1.03;;;0.90;;
15354;SDS011;7777;52.254;9.618;2022-07-12T12:54:44;0.80;;;0.80;;
15354;SDS011;7777;52.254;9.618;2022-07-12T12:57:10;0.85;;;0.70;;
15354;SDS011;7777;52.254;9.618;2022-07-12T12:59:36;1.90;;;0.88;;
15354;SDS011;7777;52.254;9.618;2022-07-12T13:02:03;1.10;;;0.90;;
15354;SDS011;7777;52.254;9.618;2022-07-12T13:04:32;2.67;;;0.93;;
15354;SDS011;7777;52.254;9.618;2022-07-12T13:07:00;1.15;;;0.77;;
15354;SDS011;7777;52.254;9.618;2022-07-12T13:09:27;2.30;;;0.80;;
15354;SDS011;7777;52.254;9.618;2022-07-12T13:11:54;2.10;;;1.05;;
15354;SDS011;7777;52.254;9.618;2022-07-12T13:14:24;4.25;;;0.82;;
15354;SDS011;7777;52.254;9.618;2022-07-12T13:16:50;1.80;;;0.57;;
15354;SDS011;7777;52.254;9.618;2022-07-12T13:19:16;1.90;;;0.65;;
15354;SDS011;7777;52.254;9.618;2022-07-12T13:21:41;0.80;;;0.70;;
15354;SDS011;7777;52.254;9.618;2022-07-12T13:24:08;3.15;;;0.98;;
15354;SDS011;7777;52.254;9.618;2022-07-12T13:26:33;0.60;;;0.60;;
15354;SDS011;7777;52.254;9.618;2022-07-12T13:28:59;1.10;;;0.70;;
15354;SDS011;7777;52.254;9.618;2022-07-12T13:31:25;1.17;;;0.63;;
15354;SDS011;7777;52.254;9.618;2022-07-12T13:33:53;0.50;;;0.50;;
15354;SDS011;7777;52.254;9.618;2022-07-12T13:36:20;1.00;;;0.80;;
15354;SDS011;7777;52.254;9.618;2022-07-12T13:38:46;2.38;;;0.77;;
15354;SDS011;7777;52.254;9.618;2022-07-12T13:41:12;1.25;;;1.05;;
15354;SDS011;7777;52.254;9.618;2022-07-12T13:43:38;0.85;;;0.63;;
15354;SDS011;7777;52.254;9.618;2022-07-12T13:46:04;0.77;;;0.63;;
15354;SDS011;7777;52.254;9.618;2022-07-12T13:48:30;0.90;;;0.68;;
15354;SDS011;7777;52.254;9.618;2022-07-12T13:50:56;4.65;;;0.70;;
15354;SDS011;7777;52.254;9.618;2022-07-12T13:53:22;1.08;;;0.88;;
15354;SDS011;7777;52.254;9.618;2022-07-12T13:55:48;1.45;;;1.00;;
15354;SDS011;7777;52.254;9.618;2022-07-12T13:58:13;0.75;;;0.60;;
15354;SDS011;7777;52.254;9.618;2022-07-12T14:00:40;4.68;;;0.88;;
15354;SDS011;7777;52.254;9.618;2022-07-12T14:03:06;9.70;;;1.08;;
15354;SDS011;7777;52.254;9.618;2022-07-12T14:05:33;1.67;;;0.80;;
15354;SDS011;7777;52.254;9.618;2022-07-12T14:07:59;5.10;;;0.98;;
15354;SDS011;7777;52.254;9.618;2022-07-12T14:10:25;0.98;;;0.70;;
15354;SDS011;7777;52.254;9.618;2022-07-12T14:12:52;9.10;;;1.15;;
15354;SDS011;7777;52.254;9.618;2022-07-12T14:15:18;2.65;;;0.90;;
15354;SDS011;7777;52.254;9.618;2022-07-12T14:20:18;2.15;;;0.90;;
15354;SDS011;7777;52.254;9.618;2022-07-12T14:22:46;7.95;;;0.82;;
15354;SDS011;7777;52.254;9.618;2022-07-12T14:25:13;0.65;;;0.55;;
15354;SDS011;7777;52.254;9.618;2022-07-12T14:27:40;2.78;;;0.60;;
15354;SDS011;7777;52.254;9.618;2022-07-12T14:30:08;0.63;;;0.63;;
15354;SDS011;7777;52.254;9.618;2022-07-12T14:32:36;0.75;;;0.40;;
15354;SDS011;7777;52.254;9.618;2022-07-12T14:35:03;2.38;;;0.88;;
15354;SDS011;7777;52.254;9.618;2022-07-12T14:37:30;2.15;;;0.73;;
15354;SDS011;7777;52.254;9.618;2022-07-12T14:39:57;0.60;;;0.50;;
15354;SDS011;7777;52.254;9.618;2022-07-12T14:42:23;4.93;;;0.77;;
15354;SDS011;7777;52.254;9.618;2022-07-12T14:44:49;2.38;;;1.00;;
15354;SDS011;7777;52.254;9.618;2022-07-12T14:47:15;1.95;;;0.57;;
15354;SDS011;7777;52.254;9.618;2022-07-12T14:49:40;1.05;;;0.77;;
15354;SDS011;7777;52.254;9.618;2022-07-12T14:52:06;0.70;;;0.60;;
15354;SDS011;7777;52.254;9.618;2022-07-12T14:54:32;0.73;;;0.55;;
15354;SDS011;7777;52.254;9.618;2022-07-12T14:56:58;3.25;;;0.93;;
15354;SDS011;7777;52.254;9.618;2022-07-12T14:59:25;1.48;;;0.80;;
15354;SDS011;7777;52.254;9.618;2022-07-12T15:01:51;0.88;;;0.60;;
15354;SDS011;7777;52.254;9.618;2022-07-12T15:04:18;1.13;;;0.90;;
15354;SDS011;7777;52.254;9.618;2022-07-12T15:06:44;0.88;;;0.60;;
15354;SDS011;7777;52.254;9.618;2022-07-12T15:09:09;8.50;;;0.88;;
15354;SDS011;7777;52.254;9.618;2022-07-12T15:11:35;5.75;;;0.93;;
15354;SDS011;7777;52.254;9.618;2022-07-12T15:14:02;0.93;;;0.70;;
15354;SDS011;7777;52.254;9.618;2022-07-12T15:16:28;1.55;;;0.60;;
15354;SDS011;7777;52.254;9.618;2022-07-12T15:18:54;2.80;;;0.73;;
15354;SDS011;7777;52.254;9.618;2022-07-12T15:21:22;0.60;;;0.60;;
15354;SDS011;7777;52.254;9.618;2022-07-12T15:23:49;2.50;;;0.70;;
15354;SDS011;7777;52.254;9.618;2022-07-12T15:26:15;1.77;;;0.73;;
15354;SDS011;7777;52.254;9.618;2022-07-12T15:28:51;0.70;;;0.70;;
15354;SDS011;7777;52.254;9.618;2022-07-12T15:31:23;1.10;;;0.80;;
15354;SDS011;7777;52.254;9.618;2022-07-12T15:33:49;1.45;;;0.60;;